Time;durP1;ratioP1;P1;durP2;ratioP2;P2;SDS_P1;SDS_P2;PMS_P1;PMS_P2;Temp;Humidity;BMP_temperature;BMP_pressure;BME280_temperature;BME280_humidity;BME280_pressure;Samples;Min_cycle;Max_cycle;Signal;HPM_P1;HPM_P2
2022/11/02 00:00:21;;;;;;;6.83;2.50;;;;;;;;;;5075937;28;20988;-65
2022/11/02 00:02:48;;;;;;;5.40;2.60;;;;;;;;;;5075857;28;20449;-64
2022/11/02 00:05:22;;;;;;;14.93;3.20;;;;;;;;;;5075834;28;20457;-65
2022/11/02 00:07:49;;;;;;;9.10;3.20;;;;;;;;;;5075671;28;20516;-65
2022/11/02 00:10:17;;;;;;;5.67;2.70;;;;;;;;;;5075829;28;20440;-65
2022/11/02 00:12:44;;;;;;;7.73;3.33;;;;;;;;;;5075645;28;20446;-65
2022/11/02 00:15:11;;;;;;;5.10;2.70;;;;;;;;;;5075642;28;20489;-65
2022/11/02 00:17:41;;;;;;;8.33;2.13;;;;;;;;;;5075564;28;20448;-65
2022/11/02 00:20:09;;;;;;;10.53;2.63;;;;;;;;;;5075870;28;20446;-65
2022/11/02 00:22:37;;;;;;;11.80;3.60;;;;;;;;;;5075468;28;20449;-65
2022/11/02 00:25:05;;;;;;;13.27;2.80;;;;;;;;;;5075542;28;20442;-66
2022/11/02 00:27:33;;;;;;;10.87;2.87;;;;;;;;;;5075588;28;20473;-65
2022/11/02 00:30:01;;;;;;;6.37;2.33;;;;;;;;;;5075370;28;20445;-64
2022/11/02 00:32:28;;;;;;;9.03;2.57;;;;;;;;;;5074889;28;20926;-65
2022/11/02 00:34:56;;;;;;;5.73;2.30;;;;;;;;;;5074830;28;20801;-65
2022/11/02 00:37:24;;;;;;;9.23;2.67;;;;;;;;;;5075200;28;20436;-65
2022/11/02 00:39:51;;;;;;;11.50;3.70;;;;;;;;;;5074922;28;20526;-64
2022/11/02 00:42:18;;;;;;;12.40;3.00;;;;;;;;;;5074763;28;20448;-65
2022/11/02 00:44:45;;;;;;;12.10;2.80;;;;;;;;;;5074843;28;20965;-65
2022/11/02 00:47:12;;;;;;;12.27;3.07;;;;;;;;;;5074932;28;20901;-65
2022/11/02 00:49:39;;;;;;;11.10;3.30;;;;;;;;;;5074988;28;20446;-65
2022/11/02 00:52:08;;;;;;;6.73;2.30;;;;;;;;;;5075020;28;20432;-65
2022/11/02 00:54:35;;;;;;;11.00;2.37;;;;;;;;;;5074823;28;20481;-65
2022/11/02 00:57:03;;;;;;;10.77;3.20;;;;;;;;;;5075160;28;20862;-65
2022/11/02 00:59:30;;;;;;;12.40;2.93;;;;;;;;;;5074840;28;20496;-65
2022/11/02 01:01:57;;;;;;;7.33;2.53;;;;;;;;;;5074689;28;20456;-64
2022/11/02 01:04:24;;;;;;;14.73;3.10;;;;;;;;;;5075111;28;20444;-65
2022/11/02 01:06:51;;;;;;;15.47;3.27;;;;;;;;;;5075233;28;20448;-65
2022/11/02 01:09:20;;;;;;;14.63;4.10;;;;;;;;;;5074250;28;20437;-64
2022/11/02 01:11:47;;;;;;;11.73;2.93;;;;;;;;;;5074102;28;20445;-65
2022/11/02 01:14:14;;;;;;;7.43;2.70;;;;;;;;;;5074735;28;20480;-65
2022/11/02 01:16:43;;;;;;;10.07;2.97;;;;;;;;;;5074937;28;20456;-65
2022/11/02 01:19:11;;;;;;;10.17;2.70;;;;;;;;;;5074255;28;20532;-65
2022/11/02 01:21:38;;;;;;;6.53;2.80;;;;;;;;;;5074303;28;20458;-66
2022/11/02 01:24:05;;;;;;;9.23;3.10;;;;;;;;;;5073963;28;20473;-65
2022/11/02 01:26:34;;;;;;;6.40;2.47;;;;;;;;;;5074710;28;20452;-65
2022/11/02 01:29:01;;;;;;;10.40;2.60;;;;;;;;;;5074181;28;20448;-64
2022/11/02 01:31:28;;;;;;;13.40;3.20;;;;;;;;;;5074098;28;20451;-66
2022/11/02 01:33:55;;;;;;;6.43;2.50;;;;;;;;;;5073626;28;20478;-65
2022/11/02 01:36:23;;;;;;;12.40;3.17;;;;;;;;;;5073779;28;20452;-65
2022/11/02 01:38:50;;;;;;;5.70;2.23;;;;;;;;;;5073643;28;20448;-65
2022/11/02 01:41:17;;;;;;;9.27;2.60;;;;;;;;;;5073932;28;20440;-65
2022/11/02 01:43:47;;;;;;;15.30;4.03;;;;;;;;;;5073908;28;20445;-65
2022/11/02 01:46:16;;;;;;;6.83;2.47;;;;;;;;;;5072863;28;20444;-65
2022/11/02 01:48:44;;;;;;;8.53;2.57;;;;;;;;;;5074147;28;20450;-65
2022/11/02 01:51:14;;;;;;;6.17;2.53;;;;;;;;;;5073817;28;20466;-65
2022/11/02 01:53:43;;;;;;;8.77;3.50;;;;;;;;;;5073730;28;20453;-65
2022/11/02 01:56:11;;;;;;;9.40;2.10;;;;;;;;;;5073829;28;20460;-65
2022/11/02 01:58:38;;;;;;;9.30;3.03;;;;;;;;;;5073648;28;20522;-65
2022/11/02 02:01:07;;;;;;;5.33;2.37;;;;;;;;;;5073351;28;20438;-65
2022/11/02 02:03:36;;;;;;;12.27;3.00;;;;;;;;;;5073566;28;20452;-65
2022/11/02 02:06:05;;;;;;;9.03;3.23;;;;;;;;;;5073273;28;20957;-65
2022/11/02 02:08:33;;;;;;;11.13;4.07;;;;;;;;;;5073515;28;20442;-65
2022/11/02 02:11:00;;;;;;;10.17;3.30;;;;;;;;;;5073563;28;20449;-65
2022/11/02 02:13:28;;;;;;;8.37;3.10;;;;;;;;;;5073722;28;20443;-64
2022/11/02 02:15:59;;;;;;;5.60;2.50;;;;;;;;;;5073159;28;20481;-65
2022/11/02 02:18:30;;;;;;;8.70;3.17;;;;;;;;;;5073069;28;20916;-65
2022/11/02 02:21:11;;;;;;;8.07;3.13;;;;;;;;;;5073586;28;20430;-65
2022/11/02 02:23:44;;;;;;;8.10;2.60;;;;;;;;;;5072797;28;21014;-65
2022/11/02 02:26:30;;;;;;;8.23;2.73;;;;;;;;;;5073472;28;20441;-65
2022/11/02 02:29:00;;;;;;;14.80;3.30;;;;;;;;;;5073230;28;20442;-65
2022/11/02 02:31:32;;;;;;;9.50;2.90;;;;;;;;;;5073780;28;20802;-64
2022/11/02 02:34:01;;;;;;;6.37;3.20;;;;;;;;;;5073465;28;20444;-64
2022/11/02 02:36:32;;;;;;;12.80;2.47;;;;;;;;;;5073017;28;20451;-64
2022/11/02 02:39:03;;;;;;;9.80;2.80;;;;;;;;;;5073527;28;20776;-64
2022/11/02 02:41:35;;;;;;;9.20;3.30;;;;;;;;;;5073634;28;20437;-65
2022/11/02 02:44:05;;;;;;;7.67;2.20;;;;;;;;;;5073419;28;20434;-65
2022/11/02 02:46:34;;;;;;;13.13;2.97;;;;;;;;;;5073356;28;20462;-65
2022/11/02 02:49:02;;;;;;;8.23;2.40;;;;;;;;;;5072744;28;20445;-65
2022/11/02 02:51:30;;;;;;;8.20;2.40;;;;;;;;;;5073122;28;20806;-65
2022/11/02 02:54:00;;;;;;;5.63;2.27;;;;;;;;;;5073103;28;20920;-65
2022/11/02 02:56:29;;;;;;;5.27;2.80;;;;;;;;;;5073554;28;20459;-65
2022/11/02 02:58:59;;;;;;;11.20;2.77;;;;;;;;;;5077035;28;20446;-64
2022/11/02 03:01:28;;;;;;;8.50;2.43;;;;;;;;;;5076768;28;20442;-64
2022/11/02 03:03:55;;;;;;;8.97;2.93;;;;;;;;;;5076929;28;20471;-65
2022/11/02 03:06:25;;;;;;;9.17;3.50;;;;;;;;;;5076936;28;20942;-65
2022/11/02 03:08:58;;;;;;;7.97;2.53;;;;;;;;;;5077162;28;20445;-65
2022/11/02 03:11:25;;;;;;;11.70;2.20;;;;;;;;;;5076915;28;20425;-65
2022/11/02 03:13:58;;;;;;;7.13;2.40;;;;;;;;;;5076714;28;20445;-64
2022/11/02 03:16:32;;;;;;;6.80;2.50;;;;;;;;;;5076543;28;20435;-65
2022/11/02 03:19:01;;;;;;;7.47;2.60;;;;;;;;;;5076653;28;20444;-65
2022/11/02 03:21:30;;;;;;;14.13;2.50;;;;;;;;;;5076685;28;20450;-65
2022/11/02 03:24:01;;;;;;;5.20;2.60;;;;;;;;;;5076692;28;20468;-65
2022/11/02 03:26:31;;;;;;;7.47;2.30;;;;;;;;;;5076612;28;20467;-65
2022/11/02 03:29:02;;;;;;;7.47;3.17;;;;;;;;;;5076413;28;20456;-66
2022/11/02 03:31:34;;;;;;;8.10;2.40;;;;;;;;;;5076207;28;20435;-65
2022/11/02 03:34:05;;;;;;;7.90;2.77;;;;;;;;;;5076111;28;20918;-65
2022/11/02 03:36:34;;;;;;;12.33;2.33;;;;;;;;;;5076725;28;20440;-65
2022/11/02 03:39:05;;;;;;;13.23;2.93;;;;;;;;;;5076497;28;20809;-65
2022/11/02 03:41:33;;;;;;;10.70;3.00;;;;;;;;;;5076780;28;20457;-64
2022/11/02 03:44:03;;;;;;;9.00;2.80;;;;;;;;;;5076190;28;20441;-65
2022/11/02 03:46:33;;;;;;;11.30;2.73;;;;;;;;;;5076229;28;20452;-65
2022/11/02 03:49:03;;;;;;;16.03;3.30;;;;;;;;;;5076100;28;20494;-65
2022/11/02 03:51:30;;;;;;;8.87;3.10;;;;;;;;;;5075844;28;20446;-65
2022/11/02 03:54:00;;;;;;;8.83;2.87;;;;;;;;;;5076320;28;20444;-65
2022/11/02 03:56:28;;;;;;;10.70;3.60;;;;;;;;;;5076040;28;20483;-65
2022/11/02 03:58:57;;;;;;;5.20;3.07;;;;;;;;;;5075815;28;20472;-65
2022/11/02 04:01:25;;;;;;;9.20;3.20;;;;;;;;;;5075622;28;20938;-65
2022/11/02 04:03:52;;;;;;;7.73;3.00;;;;;;;;;;5075607;28;20443;-65
2022/11/02 04:06:22;;;;;;;13.93;3.03;;;;;;;;;;5075469;28;21051;-65
2022/11/02 04:08:49;;;;;;;7.80;2.93;;;;;;;;;;5074797;28;20443;-65
2022/11/02 04:16:46;;;;;;;6.07;2.37;;;;;;;;;;5075585;28;20396;-64
2022/11/02 04:19:27;;;;;;;10.07;3.73;;;;;;;;;;5075681;28;20441;-65
2022/11/02 04:27:26;;;;;;;9.90;2.33;;;;;;;;;;5075382;28;20409;-65
2022/11/02 04:29:53;;;;;;;6.70;2.70;;;;;;;;;;5075082;28;20924;-64
2022/11/02 04:35:01;;;;;;;8.93;2.40;;;;;;;;;;5074686;28;20476;-64
2022/11/02 04:40:14;;;;;;;8.00;2.90;;;;;;;;;;5075048;28;20401;-65
2022/11/02 04:42:41;;;;;;;6.87;2.50;;;;;;;;;;5074868;28;20454;-64
2022/11/02 04:45:09;;;;;;;7.93;2.50;;;;;;;;;;5074762;28;20935;-65
2022/11/02 04:47:36;;;;;;;5.43;3.13;;;;;;;;;;5075119;28;20439;-65
2022/11/02 04:50:04;;;;;;;9.40;2.70;;;;;;;;;;5074668;28;20475;-65
2022/11/02 04:52:32;;;;;;;6.70;2.67;;;;;;;;;;5074997;28;20549;-65
2022/11/02 04:54:59;;;;;;;8.30;2.80;;;;;;;;;;5074618;28;20481;-64
2022/11/02 04:57:26;;;;;;;10.33;2.30;;;;;;;;;;5074899;28;20446;-64
2022/11/02 04:59:54;;;;;;;4.50;2.27;;;;;;;;;;5074818;28;20486;-65
2022/11/02 05:02:21;;;;;;;9.93;2.70;;;;;;;;;;5074960;28;20476;-65
2022/11/02 05:04:48;;;;;;;7.80;2.93;;;;;;;;;;5074889;28;20457;-65
2022/11/02 05:07:15;;;;;;;10.97;2.70;;;;;;;;;;5074777;28;20439;-64
2022/11/02 05:09:44;;;;;;;11.73;3.07;;;;;;;;;;5074635;28;20446;-65
2022/11/02 05:12:11;;;;;;;6.37;3.23;;;;;;;;;;5074250;28;20458;-65
2022/11/02 05:14:38;;;;;;;6.87;2.43;;;;;;;;;;5074221;28;20447;-65
2022/11/02 05:17:05;;;;;;;6.07;3.07;;;;;;;;;;5074516;28;20836;-65
2022/11/02 05:19:32;;;;;;;7.50;3.00;;;;;;;;;;5074322;28;20443;-65
2022/11/02 05:21:59;;;;;;;7.37;3.37;;;;;;;;;;5074191;28;20445;-65
2022/11/02 05:24:27;;;;;;;8.13;2.70;;;;;;;;;;5074518;28;20561;-66
2022/11/02 05:26:55;;;;;;;9.60;2.80;;;;;;;;;;5073969;28;20947;-65
2022/11/02 05:29:22;;;;;;;7.47;2.03;;;;;;;;;;5074224;28;20441;-65
2022/11/02 05:31:49;;;;;;;10.27;2.70;;;;;;;;;;5074132;28;20446;-65
2022/11/02 05:34:17;;;;;;;6.20;2.50;;;;;;;;;;5074249;28;20497;-64
2022/11/02 05:36:46;;;;;;;8.53;3.03;;;;;;;;;;5074109;28;20474;-65
2022/11/02 05:39:13;;;;;;;7.40;3.00;;;;;;;;;;5073992;28;20448;-65
2022/11/02 05:41:41;;;;;;;8.03;2.47;;;;;;;;;;5073901;28;20521;-65
2022/11/02 05:44:09;;;;;;;8.23;2.20;;;;;;;;;;5073697;28;20939;-65
2022/11/02 05:46:36;;;;;;;7.90;2.63;;;;;;;;;;5073715;28;21017;-65
2022/11/02 05:49:04;;;;;;;10.83;2.90;;;;;;;;;;5073913;28;20441;-65
2022/11/02 05:51:31;;;;;;;5.90;2.80;;;;;;;;;;5073346;28;20444;-65
2022/11/02 05:53:58;;;;;;;9.63;3.10;;;;;;;;;;5073469;28;20980;-66
2022/11/02 05:56:25;;;;;;;7.00;3.03;;;;;;;;;;5073633;28;20503;-65
2022/11/02 05:58:54;;;;;;;10.00;2.53;;;;;;;;;;5073520;28;20479;-65
2022/11/02 06:01:22;;;;;;;8.20;2.20;;;;;;;;;;5073380;28;20452;-65
2022/11/02 06:03:50;;;;;;;11.17;3.13;;;;;;;;;;5073778;28;20445;-65
2022/11/02 06:06:19;;;;;;;8.53;3.20;;;;;;;;;;5073216;28;20453;-64
2022/11/02 06:08:48;;;;;;;9.80;3.37;;;;;;;;;;5073652;28;20464;-65
2022/11/02 06:11:16;;;;;;;11.10;3.07;;;;;;;;;;5073480;28;20854;-65
2022/11/02 06:13:43;;;;;;;7.00;2.80;;;;;;;;;;5073304;28;20949;-65
2022/11/02 06:16:14;;;;;;;7.07;2.80;;;;;;;;;;5073284;28;20840;-65
2022/11/02 06:18:42;;;;;;;5.67;2.37;;;;;;;;;;5073601;28;20430;-65
2022/11/02 06:21:14;;;;;;;7.20;2.60;;;;;;;;;;5072915;28;21017;-65
2022/11/02 06:23:41;;;;;;;10.53;2.70;;;;;;;;;;5073081;28;20577;-65
2022/11/02 06:26:10;;;;;;;8.50;2.90;;;;;;;;;;5072906;28;20453;-65
2022/11/02 06:28:37;;;;;;;7.20;2.90;;;;;;;;;;5073064;28;20447;-65
2022/11/02 06:31:04;;;;;;;5.80;2.13;;;;;;;;;;5072750;28;20873;-65
2022/11/02 06:33:31;;;;;;;9.60;2.70;;;;;;;;;;5073322;28;20444;-65
2022/11/02 06:36:08;;;;;;;3.60;2.50;;;;;;;;;;5072842;28;20480;-64
2022/11/02 06:38:35;;;;;;;6.03;2.27;;;;;;;;;;5073445;28;20433;-64
2022/11/02 06:41:06;;;;;;;10.30;2.53;;;;;;;;;;5073163;28;20455;-64
2022/11/02 06:43:35;;;;;;;6.40;2.50;;;;;;;;;;5073075;28;20926;-64
2022/11/02 06:46:02;;;;;;;10.03;3.17;;;;;;;;;;5072879;28;20476;-65
2022/11/02 06:48:29;;;;;;;6.93;2.40;;;;;;;;;;5073047;28;20845;-64
2022/11/02 06:50:57;;;;;;;7.03;2.20;;;;;;;;;;5073217;28;20778;-64
2022/11/02 06:53:26;;;;;;;7.90;2.60;;;;;;;;;;5072959;28;20944;-65
2022/11/02 06:55:53;;;;;;;17.27;3.50;;;;;;;;;;5073040;28;20888;-66
2022/11/02 06:58:21;;;;;;;4.63;2.40;;;;;;;;;;5072531;28;20441;-64
2022/11/02 07:00:49;;;;;;;8.60;2.47;;;;;;;;;;5072619;28;20955;-64
2022/11/02 07:03:16;;;;;;;10.67;2.70;;;;;;;;;;5072903;28;20526;-65
2022/11/02 07:05:43;;;;;;;6.73;2.40;;;;;;;;;;5073567;28;20828;-65
2022/11/02 07:08:10;;;;;;;8.13;3.03;;;;;;;;;;5072827;28;20442;-65
2022/11/02 07:10:40;;;;;;;7.73;3.20;;;;;;;;;;5073136;28;20450;-65
2022/11/02 07:13:08;;;;;;;7.47;2.43;;;;;;;;;;5073033;28;20426;-65
2022/11/02 07:15:35;;;;;;;11.50;3.23;;;;;;;;;;5072672;28;20482;-65
2022/11/02 07:18:02;;;;;;;4.93;2.60;;;;;;;;;;5072779;28;20456;-65
2022/11/02 07:20:32;;;;;;;5.23;2.40;;;;;;;;;;5072901;28;20861;-65
2022/11/02 07:23:00;;;;;;;4.90;2.93;;;;;;;;;;5072713;28;20476;-65
2022/11/02 07:25:29;;;;;;;9.50;2.80;;;;;;;;;;5072506;28;20441;-65
2022/11/02 07:27:58;;;;;;;8.80;2.80;;;;;;;;;;5072654;28;20445;-64
2022/11/02 07:30:26;;;;;;;5.83;2.30;;;;;;;;;;5073118;28;20449;-66
2022/11/02 07:32:53;;;;;;;14.43;3.37;;;;;;;;;;5072619;28;20816;-65
2022/11/02 07:35:20;;;;;;;9.40;2.90;;;;;;;;;;5072951;28;20483;-64
2022/11/02 07:37:55;;;;;;;11.07;3.43;;;;;;;;;;5072614;28;20441;-64
2022/11/02 07:40:22;;;;;;;10.80;2.40;;;;;;;;;;5072750;28;20433;-65
2022/11/02 07:42:49;;;;;;;8.00;2.73;;;;;;;;;;5072817;28;20938;-65
2022/11/02 07:45:18;;;;;;;12.20;3.07;;;;;;;;;;5076090;28;20801;-65
2022/11/02 07:47:45;;;;;;;10.70;3.83;;;;;;;;;;5076177;28;20563;-65
2022/11/02 07:50:20;;;;;;;7.03;2.10;;;;;;;;;;5075873;28;20944;-65
2022/11/02 07:52:49;;;;;;;7.13;1.80;;;;;;;;;;5076315;28;20451;-65
2022/11/02 07:55:17;;;;;;;6.30;2.13;;;;;;;;;;5075794;28;20528;-65
2022/11/02 07:57:44;;;;;;;7.00;3.00;;;;;;;;;;5075923;28;20442;-64
2022/11/02 08:00:12;;;;;;;8.20;2.40;;;;;;;;;;5075657;28;20448;-65
2022/11/02 08:02:40;;;;;;;8.30;2.60;;;;;;;;;;5075943;28;20794;-65
2022/11/02 08:05:08;;;;;;;5.60;2.07;;;;;;;;;;5075601;28;20444;-65
2022/11/02 08:07:35;;;;;;;10.93;2.77;;;;;;;;;;5075814;28;20451;-64
2022/11/02 08:10:02;;;;;;;6.83;2.93;;;;;;;;;;5075864;28;20463;-65
2022/11/02 08:12:29;;;;;;;10.00;2.10;;;;;;;;;;5075404;28;20442;-65
2022/11/02 08:14:57;;;;;;;9.40;2.50;;;;;;;;;;5074944;28;20441;-65
2022/11/02 08:17:24;;;;;;;5.57;2.00;;;;;;;;;;5075594;28;20487;-65
2022/11/02 08:19:52;;;;;;;6.50;1.90;;;;;;;;;;5075925;28;20446;-65
2022/11/02 08:22:20;;;;;;;7.70;2.33;;;;;;;;;;5075790;28;20540;-65
2022/11/02 08:24:47;;;;;;;11.03;2.63;;;;;;;;;;5075407;28;20558;-65
2022/11/02 08:27:14;;;;;;;10.33;2.60;;;;;;;;;;5075471;28;20533;-65
2022/11/02 08:29:41;;;;;;;12.57;2.73;;;;;;;;;;5075420;28;20446;-65
2022/11/02 08:32:08;;;;;;;6.70;1.93;;;;;;;;;;5075134;28;20445;-65
2022/11/02 08:34:36;;;;;;;11.73;2.30;;;;;;;;;;5075256;28;20519;-65
2022/11/02 08:37:04;;;;;;;10.97;2.77;;;;;;;;;;5076021;28;20840;-65
2022/11/02 08:39:31;;;;;;;7.30;2.30;;;;;;;;;;5074945;28;20503;-64
2022/11/02 08:41:59;;;;;;;12.90;3.90;;;;;;;;;;5075312;28;20805;-65
2022/11/02 08:44:26;;;;;;;9.40;2.97;;;;;;;;;;5075259;28;20447;-64
2022/11/02 08:46:53;;;;;;;8.80;2.90;;;;;;;;;;5075559;28;20476;-65
2022/11/02 08:49:20;;;;;;;6.03;2.40;;;;;;;;;;5074733;28;20455;-64
2022/11/02 08:51:48;;;;;;;8.17;2.97;;;;;;;;;;5074702;28;20441;-66
2022/11/02 08:54:16;;;;;;;6.90;2.60;;;;;;;;;;5074518;28;20457;-64
2022/11/02 08:56:43;;;;;;;6.17;2.97;;;;;;;;;;5074555;28;20529;-65
2022/11/02 08:59:11;;;;;;;6.83;1.90;;;;;;;;;;5074495;28;20917;-66
2022/11/02 09:01:38;;;;;;;6.87;4.10;;;;;;;;;;5075127;28;20457;-65
2022/11/02 09:04:06;;;;;;;5.53;2.33;;;;;;;;;;5074507;28;20437;-65
2022/11/02 09:06:33;;;;;;;5.20;2.43;;;;;;;;;;5075232;28;20549;-65
2022/11/02 09:09:00;;;;;;;8.37;2.43;;;;;;;;;;5074314;28;20507;-65
2022/11/02 09:11:29;;;;;;;7.57;3.43;;;;;;;;;;5074766;28;20880;-65
2022/11/02 09:13:56;;;;;;;6.10;2.20;;;;;;;;;;5074718;28;20448;-65
2022/11/02 09:16:23;;;;;;;9.30;3.20;;;;;;;;;;5075174;28;20783;-65
2022/11/02 09:18:50;;;;;;;5.20;1.97;;;;;;;;;;5074833;28;20539;-65
2022/11/02 09:21:18;;;;;;;6.93;1.93;;;;;;;;;;5074144;28;20987;-65
2022/11/02 09:23:47;;;;;;;7.17;2.83;;;;;;;;;;5074378;28;20828;-65
2022/11/02 09:26:14;;;;;;;5.70;2.37;;;;;;;;;;5074294;28;20485;-65
2022/11/02 09:28:43;;;;;;;6.50;2.43;;;;;;;;;;5074243;28;20446;-65
2022/11/02 09:31:10;;;;;;;11.47;3.00;;;;;;;;;;5073922;28;20447;-65
2022/11/02 09:33:37;;;;;;;4.67;2.17;;;;;;;;;;5074026;28;20534;-65
2022/11/02 09:36:05;;;;;;;10.53;3.30;;;;;;;;;;5074034;28;20545;-65
2022/11/02 09:38:32;;;;;;;10.93;3.10;;;;;;;;;;5074675;28;20876;-65
2022/11/02 09:41:07;;;;;;;10.53;2.70;;;;;;;;;;5074104;28;20448;-65
2022/11/02 09:43:40;;;;;;;10.40;2.77;;;;;;;;;;5074851;28;20445;-65
2022/11/02 09:46:10;;;;;;;9.60;1.70;;;;;;;;;;5073660;28;20939;-65
2022/11/02 09:48:38;;;;;;;2.40;1.50;;;;;;;;;;5074186;28;20759;-65
2022/11/02 09:51:08;;;;;;;11.27;2.77;;;;;;;;;;5073579;28;20449;-65
2022/11/02 09:53:40;;;;;;;6.97;2.20;;;;;;;;;;5073437;28;20453;-65
2022/11/02 09:56:08;;;;;;;11.73;3.50;;;;;;;;;;5073751;28;20435;-65
2022/11/02 09:58:37;;;;;;;3.90;1.80;;;;;;;;;;5073423;28;20950;-65
2022/11/02 10:01:09;;;;;;;4.77;2.00;;;;;;;;;;5073647;28;20486;-65
2022/11/02 10:03:43;;;;;;;9.33;2.87;;;;;;;;;;5073405;28;20434;-65
2022/11/02 10:06:12;;;;;;;10.13;2.93;;;;;;;;;;5073023;28;20434;-70
2022/11/02 10:08:43;;;;;;;6.30;2.07;;;;;;;;;;5073628;28;20453;-64
2022/11/02 10:11:16;;;;;;;2.40;1.63;;;;;;;;;;5073539;28;20437;-64
2022/11/02 10:13:45;;;;;;;6.83;2.30;;;;;;;;;;5073289;28;20919;-64
2022/11/02 10:16:14;;;;;;;5.87;2.73;;;;;;;;;;5073047;28;20442;-64
2022/11/02 10:18:43;;;;;;;7.80;2.40;;;;;;;;;;5073257;28;20800;-64
2022/11/02 10:21:13;;;;;;;5.93;1.90;;;;;;;;;;5073192;28;20801;-64
2022/11/02 10:23:41;;;;;;;8.40;3.13;;;;;;;;;;5073144;28;20482;-65
2022/11/02 10:26:15;;;;;;;6.83;2.83;;;;;;;;;;5073306;28;20431;-65
2022/11/02 10:28:43;;;;;;;6.73;1.83;;;;;;;;;;5073819;28;20437;-65
2022/11/02 10:31:18;;;;;;;5.53;1.97;;;;;;;;;;5073122;28;20469;-65
2022/11/02 10:33:47;;;;;;;3.23;2.20;;;;;;;;;;5073066;28;20928;-64
2022/11/02 10:36:19;;;;;;;8.37;2.30;;;;;;;;;;5073067;28;20452;-64
2022/11/02 10:38:55;;;;;;;6.20;2.10;;;;;;;;;;5073553;28;20510;-64
2022/11/02 10:41:28;;;;;;;3.30;1.77;;;;;;;;;;5072885;28;20526;-64
2022/11/02 10:44:03;;;;;;;12.63;2.00;;;;;;;;;;5072919;28;20938;-64
2022/11/02 10:46:38;;;;;;;10.90;1.97;;;;;;;;;;5073232;28;20437;-64
2022/11/02 10:49:11;;;;;;;10.90;2.87;;;;;;;;;;5073608;28;20444;-71
2022/11/02 10:51:38;;;;;;;8.57;2.20;;;;;;;;;;5073229;28;20434;-70
2022/11/02 10:54:08;;;;;;;10.43;1.77;;;;;;;;;;5073571;28;20549;-65
2022/11/02 10:56:36;;;;;;;5.23;2.30;;;;;;;;;;5073144;28;20881;-65
2022/11/02 10:59:09;;;;;;;10.63;2.20;;;;;;;;;;5073219;28;20512;-67
2022/11/02 11:01:37;;;;;;;4.50;2.43;;;;;;;;;;5073097;28;20429;-68
2022/11/02 11:04:05;;;;;;;4.03;1.70;;;;;;;;;;5073237;28;20572;-69
2022/11/02 11:06:36;;;;;;;9.23;2.07;;;;;;;;;;5072763;28;20529;-67
2022/11/02 11:09:06;;;;;;;6.23;2.10;;;;;;;;;;5073383;28;20444;-67
2022/11/02 11:11:34;;;;;;;12.00;2.40;;;;;;;;;;5072992;28;20443;-67
2022/11/02 11:14:04;;;;;;;5.80;1.73;;;;;;;;;;5072561;28;20988;-68
2022/11/02 11:16:33;;;;;;;9.53;2.23;;;;;;;;;;5072795;28;20846;-68
2022/11/02 11:19:03;;;;;;;6.57;2.07;;;;;;;;;;5076418;28;20469;-67
2022/11/02 11:21:38;;;;;;;4.13;1.63;;;;;;;;;;5077252;28;20435;-67
2022/11/02 11:24:12;;;;;;;5.80;1.93;;;;;;;;;;5076726;28;20846;-68
2022/11/02 11:26:40;;;;;;;5.80;2.13;;;;;;;;;;5076800;28;20443;-65
2022/11/02 11:29:21;;;;;;;6.73;2.33;;;;;;;;;;5076632;28;20442;-66
2022/11/02 11:31:48;;;;;;;4.83;2.00;;;;;;;;;;5076508;28;20446;-73
2022/11/02 11:34:23;;;;;;;11.90;2.20;;;;;;;;;;5076427;28;20888;-65
2022/11/02 11:36:52;;;;;;;7.03;2.23;;;;;;;;;;5076510;28;20458;-65
2022/11/02 11:39:24;;;;;;;5.50;2.43;;;;;;;;;;5076419;28;20451;-65
2022/11/02 11:41:52;;;;;;;4.73;2.40;;;;;;;;;;5076561;28;20442;-65
2022/11/02 11:44:19;;;;;;;6.33;1.90;;;;;;;;;;5076217;28;20508;-65
2022/11/02 11:46:48;;;;;;;6.20;2.00;;;;;;;;;;5076122;28;20528;-65
2022/11/02 11:49:22;;;;;;;6.07;2.17;;;;;;;;;;5076221;28;20474;-66
2022/11/02 11:51:50;;;;;;;8.40;2.13;;;;;;;;;;5056333;28;20461;-67
2022/11/02 11:54:26;;;;;;;7.27;2.07;;;;;;;;;;5056470;28;20910;-67
2022/11/02 11:56:54;;;;;;;5.57;2.00;;;;;;;;;;5056293;28;20471;-67
2022/11/02 11:59:23;;;;;;;18.17;2.53;;;;;;;;;;5056230;28;20455;-66
2022/11/02 12:01:52;;;;;;;4.20;2.10;;;;;;;;;;5055562;28;20453;-66
2022/11/02 12:04:27;;;;;;;4.83;2.27;;;;;;;;;;5056543;28;20446;-67
2022/11/02 12:06:58;;;;;;;6.87;2.60;;;;;;;;;;5055558;28;20490;-67
2022/11/02 12:09:31;;;;;;;10.80;2.50;;;;;;;;;;5056251;28;20785;-67
2022/11/02 12:12:03;;;;;;;6.93;2.03;;;;;;;;;;5056131;28;20436;-67
2022/11/02 12:14:38;;;;;;;9.40;2.70;;;;;;;;;;5061210;28;20950;-66
2022/11/02 12:17:23;;;;;;;8.60;2.70;;;;;;;;;;5075414;28;20465;-67
2022/11/02 12:19:56;;;;;;;14.87;3.10;;;;;;;;;;5065878;28;20463;-67
2022/11/02 12:22:27;;;;;;;11.33;2.43;;;;;;;;;;5075184;28;20450;-66
2022/11/02 12:25:06;;;;;;;8.23;2.57;;;;;;;;;;5075187;28;20486;-67
2022/11/02 12:27:37;;;;;;;3.83;2.03;;;;;;;;;;5075318;28;20449;-67
2022/11/02 12:30:10;;;;;;;5.90;3.00;;;;;;;;;;5075289;28;20515;-67
2022/11/02 12:33:05;;;;;;;5.10;2.30;;;;;;;;;;5075465;28;20495;-68
2022/11/02 12:35:41;;;;;;;3.40;2.00;;;;;;;;;;5075177;28;20537;-66
2022/11/02 12:38:19;;;;;;;6.10;2.23;;;;;;;;;;5075356;28;20496;-67
2022/11/02 12:40:52;;;;;;;5.97;1.73;;;;;;;;;;5076251;28;20836;-67
2022/11/02 12:43:36;;;;;;;12.23;3.10;;;;;;;;;;5074937;28;20439;-67
2022/11/02 12:46:05;;;;;;;5.23;2.50;;;;;;;;;;5075274;28;20450;-67
2022/11/02 12:48:37;;;;;;;8.30;1.97;;;;;;;;;;5075170;28;20446;-66
2022/11/02 12:51:08;;;;;;;5.40;2.10;;;;;;;;;;5074887;28;20439;-68
2022/11/02 12:53:40;;;;;;;7.60;2.13;;;;;;;;;;5074819;28;20544;-68
2022/11/02 12:56:11;;;;;;;6.67;2.17;;;;;;;;;;5075129;28;20428;-67
2022/11/02 12:58:40;;;;;;;12.10;2.23;;;;;;;;;;5075054;28;20474;-67
2022/11/02 13:01:10;;;;;;;8.23;2.67;;;;;;;;;;5075215;28;20447;-66
2022/11/02 13:03:43;;;;;;;5.30;1.80;;;;;;;;;;5074884;28;20522;-67
2022/11/02 13:06:13;;;;;;;13.67;4.70;;;;;;;;;;5075347;28;20514;-66
2022/11/02 13:08:43;;;;;;;4.63;2.20;;;;;;;;;;5074765;28;20882;-66
2022/11/02 13:11:15;;;;;;;5.87;2.03;;;;;;;;;;5075018;28;20437;-68
2022/11/02 13:13:44;;;;;;;13.60;2.40;;;;;;;;;;5074369;28;20440;-68
2022/11/02 13:16:12;;;;;;;9.40;3.13;;;;;;;;;;5074610;28;20859;-71
2022/11/02 13:18:42;;;;;;;5.83;2.00;;;;;;;;;;5074209;28;21002;-69
2022/11/02 13:21:12;;;;;;;5.80;2.40;;;;;;;;;;5074551;28;20922;-69
2022/11/02 13:23:40;;;;;;;6.50;2.80;;;;;;;;;;5074216;28;20478;-69
2022/11/02 13:26:10;;;;;;;5.40;1.90;;;;;;;;;;5074164;28;20522;-69
2022/11/02 13:28:42;;;;;;;11.70;2.03;;;;;;;;;;5073978;28;20450;-68
2022/11/02 13:31:12;;;;;;;6.70;2.80;;;;;;;;;;5074664;28;20913;-69
2022/11/02 13:33:42;;;;;;;5.33;1.90;;;;;;;;;;5074329;28;20471;-69
2022/11/02 13:36:09;;;;;;;7.17;3.33;;;;;;;;;;5073890;28;20932;-69
2022/11/02 13:38:39;;;;;;;2.97;1.80;;;;;;;;;;5073962;28;20855;-69
2022/11/02 13:41:14;;;;;;;5.77;2.30;;;;;;;;;;5072816;28;20443;-69
2022/11/02 13:43:54;;;;;;;5.73;1.97;;;;;;;;;;5073748;28;20432;-68
2022/11/02 13:46:30;;;;;;;4.67;2.40;;;;;;;;;;5074110;28;20861;-69
2022/11/02 13:49:01;;;;;;;6.17;2.80;;;;;;;;;;5074050;28;20529;-68
2022/11/02 13:51:36;;;;;;;5.80;2.60;;;;;;;;;;5073656;28;20427;-68
2022/11/02 13:54:06;;;;;;;7.07;2.20;;;;;;;;;;5074142;28;20463;-68
2022/11/02 13:56:35;;;;;;;12.10;2.90;;;;;;;;;;5073957;28;20522;-69
2022/11/02 13:59:05;;;;;;;8.60;2.03;;;;;;;;;;5073644;28;20486;-69
2022/11/02 14:01:35;;;;;;;4.70;1.80;;;;;;;;;;5073463;28;20457;-68
2022/11/02 14:04:03;;;;;;;7.40;3.30;;;;;;;;;;5073724;28;20845;-68
2022/11/02 14:06:32;;;;;;;3.10;2.27;;;;;;;;;;5073646;28;20443;-68
2022/11/02 14:09:00;;;;;;;8.17;2.43;;;;;;;;;;5073835;28;20446;-68
2022/11/02 14:11:33;;;;;;;4.13;1.60;;;;;;;;;;5073435;28;20962;-67
2022/11/02 14:14:21;;;;;;;5.73;2.10;;;;;;;;;;5073482;28;20445;-68
2022/11/02 14:17:13;;;;;;;6.03;2.60;;;;;;;;;;5068467;28;20978;-68
2022/11/02 14:19:52;;;;;;;4.70;2.07;;;;;;;;;;5073193;28;20431;-68
2022/11/02 14:22:19;;;;;;;7.47;2.00;;;;;;;;;;5073296;28;20449;-68
2022/11/02 14:24:53;;;;;;;8.63;2.50;;;;;;;;;;5072988;28;20484;-68
2022/11/02 14:27:30;;;;;;;6.13;2.80;;;;;;;;;;5073112;28;20539;-67
2022/11/02 14:29:58;;;;;;;10.63;2.73;;;;;;;;;;5073418;28;20524;-68
2022/11/02 14:32:43;;;;;;;4.80;1.93;;;;;;;;;;5073405;28;20439;-68
2022/11/02 14:35:27;;;;;;;3.90;2.10;;;;;;;;;;5072851;28;20453;-70
2022/11/02 14:38:03;;;;;;;6.67;2.37;;;;;;;;;;5073420;28;20477;-67
2022/11/02 14:40:36;;;;;;;5.73;2.30;;;;;;;;;;5073446;28;20561;-66
2022/11/02 14:43:13;;;;;;;7.77;3.77;;;;;;;;;;5073386;28;20794;-66
2022/11/02 14:45:50;;;;;;;8.50;2.43;;;;;;;;;;5073762;28;20424;-65
2022/11/02 14:48:17;;;;;;;9.50;2.57;;;;;;;;;;5073402;28;20814;-67
2022/11/02 14:50:58;;;;;;;9.13;2.47;;;;;;;;;;5073177;28;20477;-66
2022/11/02 14:53:26;;;;;;;6.50;2.00;;;;;;;;;;5075720;28;20457;-65
2022/11/02 14:55:54;;;;;;;6.83;2.43;;;;;;;;;;5076348;28;20515;-66
2022/11/02 14:58:23;;;;;;;5.93;2.37;;;;;;;;;;5077202;28;20478;-65
2022/11/02 15:00:58;;;;;;;6.80;2.27;;;;;;;;;;5077260;28;20567;-65
2022/11/02 15:03:29;;;;;;;6.70;2.17;;;;;;;;;;5077257;28;20862;-66
2022/11/02 15:06:01;;;;;;;6.30;2.07;;;;;;;;;;5077326;28;20447;-65
2022/11/02 15:08:30;;;;;;;5.13;2.17;;;;;;;;;;5076978;28;20437;-65
2022/11/02 15:10:57;;;;;;;10.60;2.50;;;;;;;;;;5077082;28;20564;-66